createdAt,value
2023-01-21T00:01:36.713Z,84
2023-01-21T00:05:01.953Z,84
2023-01-21T00:08:27.179Z,84
2023-01-21T00:11:52.435Z,84
2023-01-21T00:15:17.724Z,84
2023-01-21T00:18:42.956Z,84
2023-01-21T00:22:08.200Z,84
2023-01-21T00:25:33.429Z,84
2023-01-21T00:28:58.690Z,84
2023-01-21T00:32:23.990Z,84
2023-01-21T00:35:49.196Z,84
2023-01-21T00:39:14.457Z,85
2023-01-21T00:42:39.707Z,86
2023-01-21T00:46:04.982Z,86
2023-01-21T00:49:30.217Z,86
2023-01-21T00:52:55.436Z,85
2023-01-21T00:56:20.690Z,86
2023-01-21T00:59:45.958Z,86
2023-01-21T01:03:11.199Z,85
2023-01-21T01:06:36.492Z,85
2023-01-21T01:10:02.041Z,86
2023-01-21T01:13:27.307Z,86
2023-01-21T01:16:52.552Z,86
2023-01-21T01:20:18.439Z,86
2023-01-21T01:23:43.472Z,85
2023-01-21T01:27:08.673Z,86
2023-01-21T01:30:33.929Z,86
2023-01-21T01:33:59.175Z,86
2023-01-21T01:37:24.439Z,86
2023-01-21T01:40:49.711Z,86
2023-01-21T01:44:14.941Z,87
2023-01-21T01:47:40.180Z,87
2023-01-21T01:51:05.449Z,88
2023-01-21T01:54:30.682Z,88
2023-01-21T01:57:55.974Z,88
2023-01-21T02:01:21.167Z,89
2023-01-21T02:04:46.415Z,90
2023-01-21T02:08:11.670Z,90
2023-01-21T02:11:36.912Z,90
2023-01-21T02:15:02.167Z,90
2023-01-21T02:18:27.432Z,90
2023-01-21T02:21:52.670Z,90
2023-01-21T02:25:17.917Z,90
2023-01-21T02:28:43.170Z,90
2023-01-21T02:32:08.410Z,90
2023-01-21T02:35:33.618Z,90
2023-01-21T02:38:58.870Z,90
2023-01-21T02:42:24.119Z,90
2023-01-21T02:45:49.357Z,89
2023-01-21T02:49:14.625Z,88
2023-01-21T02:52:39.837Z,89
2023-01-21T02:56:05.089Z,89
2023-01-21T02:59:30.347Z,90
2023-01-21T03:02:55.589Z,90
2023-01-21T03:06:20.867Z,90
2023-01-21T03:09:46.090Z,89
2023-01-21T03:13:11.336Z,89
2023-01-21T03:16:36.633Z,89
2023-01-21T03:20:01.828Z,89
2023-01-21T03:23:27.081Z,89
2023-01-21T03:26:52.329Z,89
2023-01-21T03:30:17.959Z,88
2023-01-21T03:33:44.656Z,88
2023-01-21T03:37:08.073Z,89
2023-01-21T03:40:33.321Z,90
2023-01-21T03:43:58.544Z,90
2023-01-21T03:47:23.819Z,89
2023-01-21T03:50:49.109Z,90
2023-01-21T03:54:14.293Z,90
2023-01-21T03:57:39.573Z,90
2023-01-21T04:01:04.847Z,91
2023-01-21T04:04:30.040Z,90
2023-01-21T04:07:55.279Z,90
2023-01-21T04:11:20.507Z,91
2023-01-21T04:14:45.774Z,90
2023-01-21T04:18:11.010Z,90
2023-01-21T04:21:36.246Z,90
2023-01-21T04:25:01.492Z,90
2023-01-21T04:28:26.754Z,90
2023-01-21T04:31:52.126Z,90
2023-01-21T04:35:17.263Z,90
2023-01-21T04:38:42.511Z,90
2023-01-21T04:42:07.752Z,90
2023-01-21T04:45:32.994Z,90
2023-01-21T04:48:58.340Z,91
2023-01-21T04:52:23.514Z,91
2023-01-21T04:55:48.764Z,91
2023-01-21T04:59:14.018Z,91
2023-01-21T05:02:39.326Z,91
2023-01-21T05:06:04.575Z,92
2023-01-21T05:09:29.766Z,92
2023-01-21T05:12:55.007Z,92
2023-01-21T05:16:20.287Z,92
2023-01-21T05:19:45.509Z,92
2023-01-21T05:23:10.785Z,92
2023-01-21T05:26:35.994Z,92
2023-01-21T05:30:01.250Z,93
2023-01-21T05:33:26.491Z,92
2023-01-21T05:36:51.726Z,92
2023-01-21T05:40:17.244Z,92
2023-01-21T05:43:42.234Z,92
2023-01-21T05:47:07.480Z,91
2023-01-21T05:50:32.707Z,91
2023-01-21T05:53:57.932Z,91
2023-01-21T05:57:23.225Z,91
2023-01-21T06:00:48.434Z,91
2023-01-21T06:04:13.681Z,92
2023-01-21T06:07:38.935Z,92
2023-01-21T06:11:04.169Z,92
2023-01-21T06:14:29.436Z,91
2023-01-21T06:17:54.648Z,92
2023-01-21T06:21:19.879Z,93
2023-01-21T06:24:45.132Z,93
2023-01-21T06:28:10.368Z,93
2023-01-21T06:31:35.736Z,93
2023-01-21T06:35:00.848Z,93
2023-01-21T06:38:26.101Z,92
2023-01-21T06:41:52.963Z,93
2023-01-21T06:45:16.574Z,92
2023-01-21T06:48:41.962Z,91
2023-01-21T06:52:07.183Z,91
2023-01-21T06:55:32.421Z,91
2023-01-21T06:58:57.672Z,92
2023-01-21T07:02:23.223Z,92
2023-01-21T07:05:48.486Z,92
2023-01-21T07:09:13.993Z,92
2023-01-21T07:12:39.176Z,93
2023-01-21T07:16:06.827Z,93
2023-01-21T07:19:30.012Z,93
2023-01-21T07:22:55.377Z,94
2023-01-21T07:26:20.665Z,94
2023-01-21T07:29:46.044Z,93
2023-01-21T07:33:11.401Z,93
2023-01-21T07:36:36.852Z,93
2023-01-21T07:40:02.140Z,93
2023-01-21T07:43:27.421Z,93
2023-01-21T07:46:52.843Z,93
2023-01-21T07:50:18.091Z,93
2023-01-21T07:53:43.703Z,93
2023-01-21T07:57:09.063Z,93
2023-01-21T08:00:34.828Z,92
2023-01-21T08:04:00.170Z,92
2023-01-21T08:07:25.424Z,92
2023-01-21T08:10:50.664Z,91
2023-01-21T08:14:15.960Z,91
2023-01-21T08:17:41.205Z,91
2023-01-21T08:21:06.497Z,91
2023-01-21T08:24:31.743Z,92
2023-01-21T08:27:57.001Z,92
2023-01-21T08:31:22.339Z,91
2023-01-21T08:34:47.512Z,91
2023-01-21T08:38:12.825Z,91
2023-01-21T08:41:38.089Z,91
2023-01-21T08:45:03.367Z,90
2023-01-21T08:48:28.723Z,89
2023-01-21T08:51:54.059Z,89
2023-01-21T08:55:19.447Z,89
2023-01-21T08:58:44.803Z,88
2023-01-21T09:02:10.240Z,88
2023-01-21T09:05:35.540Z,88
2023-01-21T09:09:00.819Z,89
2023-01-21T09:12:27.911Z,88
2023-01-21T09:15:53.196Z,88
2023-01-21T09:19:18.489Z,88
2023-01-21T09:22:43.831Z,87
2023-01-21T09:26:09.093Z,86
2023-01-21T09:29:34.371Z,86
2023-01-21T09:32:59.657Z,86
2023-01-21T09:36:25.581Z,87
2023-01-21T09:39:50.834Z,87
2023-01-21T09:43:16.067Z,87
2023-01-21T09:46:41.323Z,88
2023-01-21T09:50:06.584Z,88
2023-01-21T09:53:31.839Z,87
2023-01-21T09:56:57.095Z,88
2023-01-21T10:00:22.349Z,88
2023-01-21T10:03:47.614Z,88
2023-01-21T10:07:12.888Z,88
2023-01-21T10:10:38.232Z,88
2023-01-21T10:14:03.581Z,88
2023-01-21T10:17:28.925Z,88
2023-01-21T10:20:54.337Z,88
2023-01-21T10:24:19.720Z,88
2023-01-21T10:27:45.048Z,88
2023-01-21T10:31:10.412Z,87
2023-01-21T10:34:35.699Z,87
2023-01-21T10:38:01.010Z,86
2023-01-21T10:41:26.336Z,86
2023-01-21T10:44:52.385Z,87
2023-01-21T10:48:17.969Z,87
2023-01-21T10:51:43.238Z,87
2023-01-21T10:55:08.520Z,87
2023-01-21T10:58:33.796Z,88
2023-01-21T11:01:59.089Z,88
2023-01-21T11:05:24.424Z,89
2023-01-21T11:08:49.684Z,89
2023-01-21T11:12:15.069Z,89
2023-01-21T11:15:40.628Z,89
2023-01-21T11:19:05.999Z,89
2023-01-21T11:22:31.317Z,89
2023-01-21T11:25:57.552Z,89
2023-01-21T11:29:23.209Z,89
2023-01-21T11:32:48.578Z,89
2023-01-21T11:36:13.871Z,89
2023-01-21T11:39:39.195Z,90
2023-01-21T11:43:04.511Z,90
2023-01-21T11:46:29.994Z,90
2023-01-21T11:49:55.268Z,89
2023-01-21T11:53:20.606Z,89
2023-01-21T11:56:45.950Z,89
2023-01-21T12:00:11.208Z,89
2023-01-21T12:03:36.542Z,89
2023-01-21T12:07:01.847Z,88
2023-01-21T12:10:27.187Z,88
2023-01-21T12:13:52.608Z,88
2023-01-21T12:17:17.996Z,88
2023-01-21T12:20:43.531Z,88
2023-01-21T12:24:09.050Z,88
2023-01-21T12:27:34.444Z,88
2023-01-21T12:31:00.057Z,88
2023-01-21T12:34:25.297Z,88
2023-01-21T12:37:50.674Z,87
2023-01-21T12:41:15.981Z,88
2023-01-21T12:44:41.432Z,87
2023-01-21T12:48:06.803Z,88
2023-01-21T12:51:32.052Z,88
2023-01-21T12:54:57.414Z,89
2023-01-21T12:58:22.881Z,89
2023-01-21T13:01:48.269Z,89
2023-01-21T13:05:13.573Z,89
2023-01-21T13:08:38.910Z,90
2023-01-21T13:12:04.238Z,90
2023-01-21T13:15:29.566Z,90
2023-01-21T13:18:54.925Z,90
2023-01-21T13:22:20.361Z,89
2023-01-21T13:25:45.872Z,90
2023-01-21T13:29:11.377Z,90
2023-01-21T13:32:36.985Z,91
2023-01-21T13:36:02.473Z,90
2023-01-21T13:39:27.897Z,90
2023-01-21T13:42:53.322Z,90
2023-01-21T13:46:18.676Z,90
2023-01-21T13:49:44.299Z,90
2023-01-21T13:53:10.534Z,90
2023-01-21T13:56:37.209Z,91
2023-01-21T14:00:09.426Z,91
2023-01-21T14:03:35.747Z,91
2023-01-21T14:07:01.091Z,91
2023-01-21T14:10:30.478Z,90
2023-01-21T14:13:55.998Z,90
2023-01-21T14:17:22.776Z,90
2023-01-21T14:20:48.239Z,90
2023-01-21T14:24:13.606Z,91
2023-01-21T14:27:38.973Z,90
2023-01-21T14:31:04.383Z,91
2023-01-21T15:05:05.448Z,91
2023-01-21T15:08:30.729Z,91
2023-01-21T15:11:56.012Z,90
2023-01-21T15:15:21.360Z,91
2023-01-21T15:18:46.657Z,91
2023-01-21T15:22:11.987Z,91
2023-01-21T15:25:37.242Z,91
2023-01-21T15:29:02.489Z,91
2023-01-21T15:32:27.767Z,91
2023-01-21T15:35:53.109Z,90
2023-01-21T15:39:18.463Z,90
2023-01-21T15:42:43.694Z,90
2023-01-21T15:46:09.040Z,90
2023-01-21T15:49:34.361Z,90
2023-01-21T15:52:59.658Z,91
2023-01-21T15:56:24.972Z,91
2023-01-21T15:59:50.259Z,91
2023-01-21T16:03:15.503Z,91
2023-01-21T16:06:40.847Z,90
2023-01-21T16:10:06.296Z,90
2023-01-21T16:13:31.545Z,90
2023-01-21T16:16:56.770Z,89
2023-01-21T16:20:22.056Z,89
2023-01-21T16:23:47.362Z,89
2023-01-21T16:27:12.684Z,89
2023-01-21T16:30:38.073Z,89
2023-01-21T16:34:03.264Z,89
2023-01-21T16:37:28.640Z,89
2023-01-21T16:40:53.929Z,89
2023-01-21T16:44:19.155Z,88
2023-01-21T16:47:44.491Z,88
2023-01-21T16:51:09.776Z,88
2023-01-21T16:54:35.018Z,88
2023-01-21T16:58:00.358Z,88
2023-01-21T17:01:25.699Z,88
2023-01-21T17:04:50.941Z,88
2023-01-21T17:08:16.201Z,88
2023-01-21T17:11:41.557Z,88
2023-01-21T17:15:06.818Z,88
2023-01-21T17:18:32.420Z,88
2023-01-21T17:21:57.754Z,89
2023-01-21T17:25:23.010Z,89
2023-01-21T17:28:48.506Z,88
2023-01-21T17:32:13.870Z,88
2023-01-21T17:35:39.236Z,88
2023-01-21T17:39:04.635Z,89
2023-01-21T17:42:29.958Z,89
2023-01-21T17:45:55.451Z,89
2023-01-21T17:49:20.510Z,89
2023-01-21T17:52:45.767Z,89
2023-01-21T17:56:11.807Z,89
2023-01-21T17:59:38.276Z,89
2023-01-21T18:03:03.412Z,89
2023-01-21T18:06:28.736Z,89
2023-01-21T18:09:54.114Z,89
2023-01-21T18:13:19.406Z,89
2023-01-21T18:16:44.674Z,89
2023-01-21T18:20:09.909Z,89
2023-01-21T18:23:35.192Z,90
2023-01-21T18:27:00.426Z,90
2023-01-21T18:30:25.770Z,91
2023-01-21T18:33:51.074Z,90
2023-01-21T18:37:16.297Z,90
2023-01-21T18:40:41.557Z,90
2023-01-21T18:44:06.856Z,90
2023-01-21T18:47:32.173Z,89
2023-01-21T18:50:57.434Z,89
2023-01-21T18:54:22.657Z,89
2023-01-21T18:57:47.943Z,89
2023-01-21T19:01:22.404Z,89
2023-01-21T19:04:38.624Z,89
2023-01-21T19:08:03.819Z,89
2023-01-21T19:11:29.107Z,89
2023-01-21T19:14:54.395Z,89
2023-01-21T19:18:19.658Z,89
2023-01-21T19:21:44.949Z,89
2023-01-21T19:25:10.182Z,90
2023-01-21T19:28:35.502Z,90
2023-01-21T19:32:00.855Z,90
2023-01-21T19:35:26.086Z,90
2023-01-21T19:38:51.551Z,90
2023-01-21T19:42:16.781Z,89
2023-01-21T19:45:42.075Z,89
2023-01-21T19:49:08.502Z,89
2023-01-21T19:52:32.744Z,89
2023-01-21T19:55:58.025Z,89
2023-01-21T19:59:23.298Z,90
2023-01-21T20:02:48.598Z,90
2023-01-21T20:06:13.905Z,90
2023-01-21T20:09:39.207Z,90
2023-01-21T20:13:04.593Z,90
2023-01-21T20:16:29.929Z,90
2023-01-21T20:19:55.176Z,90
2023-01-21T20:23:20.520Z,89
2023-01-21T20:26:45.883Z,89
2023-01-21T20:30:18.628Z,89
2023-01-21T20:33:36.541Z,90
2023-01-21T20:37:01.867Z,90
2023-01-21T20:40:27.228Z,90
2023-01-21T20:43:52.615Z,89
2023-01-21T20:47:23.019Z,90
2023-01-21T20:50:43.349Z,91
2023-01-21T20:54:08.783Z,90
2023-01-21T20:57:34.301Z,90
2023-01-21T21:00:59.652Z,90
2023-01-21T21:04:25.025Z,90
2023-01-21T21:07:50.288Z,90
2023-01-21T21:11:15.557Z,90
2023-01-21T21:14:40.870Z,90
2023-01-21T21:18:06.244Z,90
2023-01-21T21:21:31.517Z,90
2023-01-21T21:24:56.770Z,90
2023-01-21T21:28:22.037Z,90
2023-01-21T21:31:47.416Z,89
2023-01-21T21:35:12.593Z,89
2023-01-21T21:38:37.931Z,90
2023-01-21T21:42:03.153Z,90
2023-01-21T21:45:28.387Z,89
2023-01-21T21:48:53.669Z,89
2023-01-21T21:52:18.905Z,89
2023-01-21T21:55:44.245Z,89
2023-01-21T21:59:09.451Z,90
2023-01-21T22:02:34.767Z,89
2023-01-21T22:05:59.984Z,90
2023-01-21T22:09:25.257Z,90
2023-01-21T22:12:50.533Z,90
2023-01-21T22:16:15.751Z,90
2023-01-21T22:19:41.010Z,90
2023-01-21T22:23:06.266Z,90
2023-01-21T22:26:31.570Z,90
2023-01-21T22:29:56.871Z,90
2023-01-21T22:33:22.134Z,90
2023-01-21T22:36:47.387Z,90
2023-01-21T22:40:12.661Z,89
2023-01-21T22:43:37.954Z,89
2023-01-21T22:47:03.245Z,88
2023-01-21T22:50:28.486Z,88
2023-01-21T22:53:53.757Z,88
2023-01-21T22:57:19.063Z,89
2023-01-21T23:00:44.291Z,88
2023-01-21T23:04:09.597Z,88
2023-01-21T23:07:34.815Z,88
2023-01-21T23:11:00.095Z,88
2023-01-21T23:14:25.354Z,90
2023-01-21T23:17:50.610Z,90
2023-01-21T23:21:15.867Z,90
2023-01-21T23:24:41.112Z,90
2023-01-21T23:28:06.439Z,90
2023-01-21T23:31:31.815Z,90
2023-01-21T23:34:56.971Z,90
2023-01-21T23:38:22.313Z,90
2023-01-21T23:41:47.561Z,90
2023-01-21T23:45:12.858Z,90
2023-01-21T23:48:38.176Z,90
2023-01-21T23:52:03.408Z,91
2023-01-21T23:55:28.690Z,91
2023-01-21T23:58:53.930Z,91
